createdAt,value
2016-08-14T00:00:04.481Z,19.95
2016-08-14T00:01:03.934Z,19.91
2016-08-14T00:02:03.891Z,19.87
2016-08-14T00:03:04.141Z,19.9
2016-08-14T00:04:04.144Z,19.86
2016-08-14T00:05:04.325Z,19.84
2016-08-14T00:06:04.220Z,19.94
2016-08-14T00:07:03.972Z,19.88
2016-08-14T00:08:03.930Z,19.91
2016-08-14T00:09:04.072Z,19.86
2016-08-14T00:10:03.829Z,19.69
2016-08-14T00:11:03.284Z,19.7
2016-08-14T00:12:03.092Z,19.72
2016-08-14T00:13:04.291Z,19.69
2016-08-14T00:14:02.940Z,19.83
2016-08-14T00:15:03.607Z,19.83
2016-08-14T00:16:03.571Z,19.9
2016-08-14T00:17:03.235Z,19.87
2016-08-14T00:18:03.493Z,19.84
2016-08-14T00:19:02.734Z,19.75
2016-08-14T00:20:03.383Z,19.78
2016-08-14T00:21:01.941Z,19.84
2016-08-14T00:22:03.701Z,19.66
2016-08-14T00:23:03.256Z,19.66
2016-08-14T00:24:02.512Z,19.57
2016-08-14T00:25:03.203Z,19.68
2016-08-14T00:26:02.831Z,19.61
2016-08-14T00:27:03.276Z,19.68
2016-08-14T00:28:03.236Z,19.63
2016-08-14T00:29:02.992Z,19.6
2016-08-14T00:30:03.133Z,19.58
2016-08-14T00:31:02.899Z,19.66
2016-08-14T00:32:02.876Z,19.66
2016-08-14T00:33:02.812Z,19.61
2016-08-14T00:34:02.772Z,19.63
2016-08-14T00:35:02.005Z,19.66
2016-08-14T00:36:02.877Z,19.65
2016-08-14T00:37:02.629Z,19.69
2016-08-14T00:38:02.784Z,19.69
2016-08-14T00:39:02.940Z,19.63
2016-08-14T00:40:02.498Z,19.68
2016-08-14T00:41:02.475Z,19.48
2016-08-14T00:42:02.605Z,19.58
2016-08-14T00:43:02.353Z,19.5
2016-08-14T00:44:02.322Z,19.42
2016-08-14T00:45:02.484Z,19.4
2016-08-14T00:46:02.217Z,19.35
2016-08-14T00:47:02.192Z,19.33
2016-08-14T00:48:02.552Z,19.36
2016-08-14T00:49:02.092Z,19.32
2016-08-14T00:50:02.104Z,19.4
2016-08-14T00:51:02.221Z,19.23
2016-08-14T00:52:01.273Z,19.17
2016-08-14T00:53:02.330Z,18.99
2016-08-14T00:54:01.876Z,19.02
2016-08-14T00:55:01.847Z,19.02
2016-08-14T00:56:01.293Z,18.92
2016-08-14T00:57:01.753Z,18.8
2016-08-14T00:58:01.021Z,18.73
2016-08-14T00:59:01.673Z,18.73
2016-08-14T01:00:00.913Z,18.64
2016-08-14T01:01:01.578Z,18.59
2016-08-14T01:02:01.711Z,18.55
2016-08-14T01:03:01.698Z,18.54
2016-08-14T01:04:01.428Z,18.59
2016-08-14T01:05:01.405Z,18.47
2016-08-14T01:06:01.342Z,18.31
2016-08-14T01:07:01.316Z,18.34
2016-08-14T01:08:00.547Z,18.42
2016-08-14T01:09:01.206Z,18.47
2016-08-14T01:10:01.161Z,18.44
2016-08-14T01:11:01.115Z,18.49
2016-08-14T01:12:01.073Z,18.59
2016-08-14T01:13:01.250Z,18.61
2016-08-14T01:14:01.181Z,18.62
2016-08-14T01:15:01.127Z,18.61
2016-08-14T01:16:00.885Z,18.65
2016-08-14T01:17:00.839Z,18.7
2016-08-14T01:18:00.800Z,18.68
2016-08-14T01:19:00.060Z,18.64
2016-08-14T01:20:01.118Z,18.65
2016-08-14T01:21:00.660Z,18.68
2016-08-14T01:22:00.631Z,18.79
2016-08-14T01:23:00.277Z,18.79
2016-08-14T01:24:00.730Z,18.67
2016-08-14T01:25:00.471Z,18.65
2016-08-14T01:26:00.640Z,18.8
2016-08-14T01:26:59.903Z,18.83
2016-08-14T01:28:00.323Z,18.83
2016-08-14T01:29:00.499Z,18.73
2016-08-14T01:30:00.254Z,18.67
2016-08-14T01:31:00.213Z,18.59
2016-08-14T01:31:59.686Z,18.65
2016-08-14T01:33:00.331Z,18.61
2016-08-14T01:34:00.092Z,18.64
2016-08-14T01:35:00.270Z,18.52
2016-08-14T01:35:59.300Z,18.49
2016-08-14T01:36:59.941Z,18.46
2016-08-14T01:38:00.095Z,18.37
2016-08-14T01:39:00.051Z,18.25
2016-08-14T01:39:59.811Z,18.24
2016-08-14T01:40:59.756Z,18.28
2016-08-14T01:41:59.720Z,18.18
2016-08-14T01:43:00.068Z,18.31
2016-08-14T01:43:58.236Z,18.21
2016-08-14T01:44:59.601Z,18.27
2016-08-14T01:45:59.537Z,18.27
2016-08-14T01:46:59.690Z,18.21
2016-08-14T01:47:59.640Z,18.19
2016-08-14T01:48:59.426Z,18.18
2016-08-14T01:49:59.357Z,18.15
2016-08-14T01:50:59.313Z,18.07
2016-08-14T01:51:59.263Z,18.13
2016-08-14T01:52:59.213Z,18.28
2016-08-14T01:53:59.170Z,18.36
2016-08-14T01:54:59.129Z,18.49
2016-08-14T01:55:59.100Z,18.55
2016-08-14T01:56:59.240Z,18.44
2016-08-14T01:57:58.294Z,18.43
2016-08-14T01:58:59.153Z,18.4
2016-08-14T01:59:58.921Z,18.33
2016-08-14T02:00:58.863Z,18.39
2016-08-14T02:02:00.430Z,18.42
2016-08-14T02:02:58.966Z,18.4
2016-08-14T02:03:58.720Z,18.42
2016-08-14T02:04:58.679Z,18.46
2016-08-14T02:05:58.624Z,18.36
2016-08-14T02:06:58.793Z,18.29
2016-08-14T02:07:58.541Z,18.24
2016-08-14T02:08:58.491Z,18.34
2016-08-14T02:09:58.448Z,18.28
2016-08-14T02:10:58.406Z,18.28
2016-08-14T02:11:58.362Z,18.28
2016-08-14T02:12:58.716Z,18.27
2016-08-14T02:13:57.571Z,18.36
2016-08-14T02:14:57.523Z,18.39
2016-08-14T02:15:57.482Z,18.42
2016-08-14T02:16:58.350Z,18.4
2016-08-14T02:17:58.096Z,18.59
2016-08-14T02:18:58.038Z,18.59
2016-08-14T02:19:58.004Z,18.5
2016-08-14T02:20:58.190Z,18.43
2016-08-14T02:21:58.302Z,18.34
2016-08-14T02:22:57.471Z,18.39
2016-08-14T02:23:58.024Z,18.44
2016-08-14T02:24:58.041Z,18.42
2016-08-14T02:25:57.736Z,18.39
2016-08-14T02:26:57.694Z,18.31
2016-08-14T02:27:56.252Z,18.18
2016-08-14T02:28:56.903Z,18.24
2016-08-14T02:29:57.558Z,18.1
2016-08-14T02:30:57.742Z,18.1
2016-08-14T02:31:56.772Z,18.12
2016-08-14T02:32:57.413Z,18.21
2016-08-14T02:33:57.381Z,18.19
2016-08-14T02:34:57.326Z,18.19
2016-08-14T02:35:57.283Z,18.25
2016-08-14T02:36:57.242Z,18.25
2016-08-14T02:37:57.223Z,18.18
2016-08-14T02:38:57.553Z,18.15
2016-08-14T02:39:57.165Z,18.09
2016-08-14T02:40:57.255Z,18.03
2016-08-14T02:41:57.012Z,18.03
2016-08-14T02:42:56.958Z,17.94
2016-08-14T02:43:57.106Z,17.97
2016-08-14T02:44:57.066Z,17.97
2016-08-14T02:45:56.819Z,17.94
2016-08-14T02:46:56.764Z,17.84
2016-08-14T02:47:56.733Z,17.92
2016-08-14T02:48:56.688Z,17.94
2016-08-14T02:49:56.644Z,17.82
2016-08-14T02:50:56.601Z,17.94
2016-08-14T02:51:56.547Z,17.91
2016-08-14T02:52:56.704Z,17.91
2016-08-14T02:53:56.439Z,17.88
2016-08-14T02:54:56.622Z,17.91
2016-08-14T02:55:56.783Z,18
2016-08-14T02:56:56.315Z,17.94
2016-08-14T02:57:56.267Z,17.99
2016-08-14T02:58:56.225Z,18.04
2016-08-14T02:59:56.589Z,17.95
2016-08-14T03:00:56.143Z,17.92
2016-08-14T03:01:56.090Z,17.85
2016-08-14T03:02:55.405Z,17.85
2016-08-14T03:03:56.018Z,17.82
2016-08-14T03:04:55.929Z,17.84
2016-08-14T03:05:55.933Z,17.81
2016-08-14T03:06:55.862Z,17.84
2016-08-14T03:07:55.813Z,17.95
2016-08-14T03:08:55.782Z,17.97
2016-08-14T03:09:55.931Z,17.97
2016-08-14T03:10:55.682Z,17.99
2016-08-14T03:11:55.832Z,17.92
2016-08-14T03:12:54.885Z,17.97
2016-08-14T03:13:55.541Z,18.03
2016-08-14T03:14:55.502Z,18.03
2016-08-14T03:15:55.463Z,18.03
2016-08-14T03:16:55.404Z,18.18
2016-08-14T03:17:55.561Z,18.18
2016-08-14T03:18:54.608Z,18.24
2016-08-14T03:19:55.363Z,18.21
2016-08-14T03:20:55.624Z,18.13
2016-08-14T03:21:55.183Z,18.22
2016-08-14T03:22:55.369Z,18.27
2016-08-14T03:23:55.494Z,18.29
2016-08-14T03:24:54.383Z,18.21
2016-08-14T03:25:55.001Z,18.28
2016-08-14T03:26:54.962Z,18.27
2016-08-14T03:27:54.899Z,18.33
2016-08-14T03:28:55.072Z,18.33
2016-08-14T03:29:54.820Z,18.27
2016-08-14T03:30:54.769Z,18.19
2016-08-14T03:31:54.933Z,18.17
2016-08-14T03:32:54.683Z,18.21
2016-08-14T03:33:54.621Z,18.02
2016-08-14T03:34:54.626Z,18.02
2016-08-14T03:35:54.530Z,18.03
2016-08-14T03:36:54.702Z,18.1
2016-08-14T03:37:54.451Z,18.22
2016-08-14T03:38:54.404Z,18.18
2016-08-14T03:39:54.561Z,18.18
2016-08-14T03:40:54.323Z,18.13
2016-08-14T03:41:54.260Z,18.19
2016-08-14T03:42:54.236Z,18.17
2016-08-14T03:43:54.182Z,18.24
2016-08-14T03:44:54.141Z,18.19
2016-08-14T03:45:54.090Z,18.21
2016-08-14T03:46:54.042Z,17.99
2016-08-14T03:47:54.021Z,18
2016-08-14T03:48:53.951Z,18.12
2016-08-14T03:49:54.118Z,18.18
2016-08-14T03:50:53.856Z,18.18
2016-08-14T03:51:53.811Z,18.09
2016-08-14T03:52:53.771Z,18.19
2016-08-14T03:53:53.021Z,18.17
2016-08-14T03:54:53.691Z,18.19
2016-08-14T03:55:54.277Z,18.03
2016-08-14T03:56:53.776Z,17.99
2016-08-14T03:57:53.620Z,18
2016-08-14T03:58:53.701Z,18.06
2016-08-14T03:59:53.443Z,17.99
2016-08-14T04:00:53.401Z,18.09
2016-08-14T04:01:53.352Z,18.12
2016-08-14T04:02:53.312Z,18.13
2016-08-14T04:03:53.473Z,18.19
2016-08-14T04:04:53.224Z,18.19
2016-08-14T04:05:53.192Z,18.17
2016-08-14T04:06:53.346Z,18.15
2016-08-14T04:07:53.086Z,18.17
2016-08-14T04:08:53.042Z,18.27
2016-08-14T04:09:53.207Z,18.33
2016-08-14T04:10:53.164Z,18.28
2016-08-14T04:11:52.916Z,18.27
2016-08-14T04:12:53.261Z,18.22
2016-08-14T04:13:53.022Z,18.15
2016-08-14T04:14:52.284Z,18.22
2016-08-14T04:15:52.742Z,18.21
2016-08-14T04:16:52.683Z,18.03
2016-08-14T04:17:52.622Z,17.95
2016-08-14T04:18:52.607Z,17.87
2016-08-14T04:19:52.752Z,17.79
2016-08-14T04:20:52.491Z,17.7
2016-08-14T04:21:52.659Z,17.66
2016-08-14T04:22:52.412Z,17.55
2016-08-14T04:23:52.358Z,17.55
2016-08-14T04:24:51.820Z,17.48
2016-08-14T04:25:52.267Z,17.41
2016-08-14T04:26:52.222Z,17.46
2016-08-14T04:27:52.381Z,17.47
2016-08-14T04:28:52.133Z,17.41
2016-08-14T04:29:53.123Z,17.44
2016-08-14T04:30:52.067Z,17.62
2016-08-14T04:31:51.993Z,17.55
2016-08-14T04:32:51.951Z,17.62
2016-08-14T04:33:51.912Z,17.55
2016-08-14T04:34:51.862Z,17.63
2016-08-14T04:35:52.303Z,17.62
2016-08-14T04:36:51.768Z,17.73
2016-08-14T04:37:51.733Z,17.66
2016-08-14T04:38:51.882Z,17.62
2016-08-14T04:39:51.631Z,17.64
2016-08-14T04:40:51.581Z,17.66
2016-08-14T04:41:51.553Z,17.63
2016-08-14T04:42:51.486Z,17.62
2016-08-14T04:43:51.461Z,17.71
2016-08-14T04:44:51.389Z,17.78
2016-08-14T04:45:51.365Z,17.74
2016-08-14T04:46:51.317Z,17.71
2016-08-14T04:47:51.261Z,17.64
2016-08-14T04:48:51.422Z,17.62
2016-08-14T04:49:51.162Z,17.51
2016-08-14T04:50:49.928Z,17.57
2016-08-14T04:51:50.383Z,17.53
2016-08-14T04:52:51.025Z,17.62
2016-08-14T04:53:50.992Z,17.62
2016-08-14T04:54:50.952Z,17.57
2016-08-14T04:55:51.092Z,17.57
2016-08-14T04:56:50.853Z,17.59
2016-08-14T04:57:50.305Z,17.63
2016-08-14T04:58:51.962Z,17.62
2016-08-14T04:59:50.705Z,17.66
2016-08-14T05:00:50.663Z,17.64
2016-08-14T05:01:52.041Z,17.64
2016-08-14T05:02:50.590Z,17.63
2016-08-14T05:03:50.733Z,17.63
2016-08-14T05:04:50.481Z,17.62
2016-08-14T05:05:50.442Z,17.54
2016-08-14T05:06:50.395Z,17.69
2016-08-14T05:07:50.365Z,17.71
2016-08-14T05:08:50.501Z,17.78
2016-08-14T05:09:50.263Z,17.89
2016-08-14T05:10:50.213Z,17.79
2016-08-14T05:11:50.389Z,17.71
2016-08-14T05:12:49.618Z,17.7
2016-08-14T05:13:50.284Z,17.81
2016-08-14T05:14:50.234Z,17.7
2016-08-14T05:15:49.277Z,17.7
2016-08-14T05:16:50.130Z,17.87
2016-08-14T05:17:50.082Z,17.89
2016-08-14T05:18:49.863Z,17.95
2016-08-14T05:19:49.792Z,18.12
2016-08-14T05:20:49.053Z,18.19
2016-08-14T05:21:49.010Z,18.19
2016-08-14T05:22:49.661Z,18.19
2016-08-14T05:23:49.631Z,18.17
2016-08-14T05:24:49.081Z,17.97
2016-08-14T05:25:49.722Z,18.09
2016-08-14T05:26:49.494Z,18.06
2016-08-14T05:27:49.632Z,18.07
2016-08-14T05:28:49.437Z,18.07
2016-08-14T05:29:49.345Z,18.06
2016-08-14T05:30:48.601Z,17.99
2016-08-14T05:31:49.260Z,17.85
2016-08-14T05:32:49.229Z,17.81
2016-08-14T05:33:49.162Z,17.91
2016-08-14T05:34:49.113Z,17.81
2016-08-14T05:35:49.259Z,17.87
2016-08-14T05:36:49.038Z,17.82
2016-08-14T05:37:48.971Z,17.89
2016-08-14T05:38:48.929Z,17.87
2016-08-14T05:39:48.883Z,17.99
2016-08-14T05:40:48.832Z,18.02
2016-08-14T05:41:48.792Z,17.94
2016-08-14T05:42:48.762Z,18.04
2016-08-14T05:43:48.708Z,18.06
2016-08-14T05:44:48.653Z,18.1
2016-08-14T05:45:48.621Z,18.21
2016-08-14T05:46:48.583Z,18.18
2016-08-14T05:47:48.518Z,18.21
2016-08-14T05:48:48.885Z,18.22
2016-08-14T05:49:47.745Z,18.24
2016-08-14T05:50:48.390Z,18.19
2016-08-14T05:51:48.331Z,18.24
2016-08-14T05:52:48.327Z,18.36
2016-08-14T05:53:48.251Z,18.39
2016-08-14T05:54:48.200Z,18.42
2016-08-14T05:55:48.160Z,18.54
2016-08-14T05:56:48.725Z,18.54
2016-08-14T05:57:48.275Z,18.5
2016-08-14T05:58:48.231Z,18.58
2016-08-14T05:59:47.983Z,18.67
2016-08-14T06:00:47.930Z,18.67
2016-08-14T06:01:47.183Z,18.8
2016-08-14T06:02:47.843Z,18.82
2016-08-14T06:03:47.810Z,18.84
2016-08-14T06:04:47.986Z,18.82
2016-08-14T06:05:47.914Z,18.73
2016-08-14T06:06:47.743Z,18.52
2016-08-14T06:07:46.916Z,18.49
2016-08-14T06:08:47.579Z,18.49
2016-08-14T06:09:47.524Z,18.47
2016-08-14T06:10:47.470Z,18.57
2016-08-14T06:11:47.462Z,18.5
2016-08-14T06:12:47.394Z,18.49
2016-08-14T06:13:46.645Z,18.58
2016-08-14T06:14:46.672Z,18.67
2016-08-14T06:15:47.262Z,18.8
2016-08-14T06:16:47.213Z,18.73
2016-08-14T06:17:46.658Z,18.79
2016-08-14T06:18:47.133Z,18.8
2016-08-14T06:19:47.071Z,18.77
2016-08-14T06:20:46.353Z,18.82
2016-08-14T06:21:47.225Z,18.91
2016-08-14T06:22:46.943Z,18.97
2016-08-14T06:23:46.915Z,18.94
2016-08-14T06:24:46.852Z,18.97
2016-08-14T06:25:46.119Z,18.92
2016-08-14T06:26:46.774Z,18.91
2016-08-14T06:27:46.709Z,18.94
2016-08-14T06:28:46.661Z,18.91
2016-08-14T06:29:46.644Z,18.91
2016-08-14T06:30:46.082Z,18.92
2016-08-14T06:31:46.052Z,18.97
2016-08-14T06:32:46.686Z,19.01
2016-08-14T06:33:46.451Z,19.18
2016-08-14T06:34:46.617Z,19.14
2016-08-14T06:35:46.374Z,19.21
2016-08-14T06:36:46.523Z,19.2
2016-08-14T06:37:46.272Z,19.2
2016-08-14T06:38:46.232Z,19.21
2016-08-14T06:39:45.483Z,19.31
2016-08-14T06:40:46.134Z,19.24
2016-08-14T06:41:45.391Z,19.32
2016-08-14T06:42:46.038Z,19.33
2016-08-14T06:43:46.003Z,19.36
2016-08-14T06:44:45.322Z,19.42
2016-08-14T06:45:45.437Z,19.43
2016-08-14T06:46:45.872Z,19.5
2016-08-14T06:47:46.045Z,19.58
2016-08-14T06:48:45.093Z,19.6
2016-08-14T06:49:45.313Z,19.68
2016-08-14T06:50:45.019Z,19.68
2016-08-14T06:51:45.874Z,19.8
2016-08-14T06:52:45.633Z,19.87
2016-08-14T06:53:45.553Z,19.84
2016-08-14T06:54:45.511Z,19.84
2016-08-14T06:55:45.900Z,19.86
2016-08-14T06:56:45.433Z,19.91
2016-08-14T06:57:45.805Z,19.91
2016-08-14T06:58:45.350Z,19.86
2016-08-14T06:59:45.498Z,19.95
2016-08-14T07:00:45.332Z,20.03
2016-08-14T07:01:45.253Z,20.06
2016-08-14T07:02:45.152Z,19.98
2016-08-14T07:03:43.734Z,19.87
2016-08-14T07:04:45.073Z,19.76
2016-08-14T07:05:45.244Z,19.8
2016-08-14T07:06:44.973Z,19.76
2016-08-14T07:07:44.942Z,19.86
2016-08-14T07:08:44.890Z,19.83
2016-08-14T07:09:44.864Z,19.91
2016-08-14T07:10:44.099Z,19.87
2016-08-14T07:11:44.753Z,20
2016-08-14T07:12:44.711Z,20
2016-08-14T07:13:45.089Z,20.08
2016-08-14T07:14:44.621Z,20.15
2016-08-14T07:15:45.051Z,20.23
2016-08-14T07:16:44.531Z,20.23
2016-08-14T07:17:44.522Z,20.39
2016-08-14T07:18:44.670Z,20.43
2016-08-14T07:19:44.421Z,20.47
2016-08-14T07:20:44.438Z,20.65
2016-08-14T07:21:44.326Z,20.68
2016-08-14T07:22:44.470Z,20.65
2016-08-14T07:23:43.531Z,20.72
2016-08-14T07:24:43.492Z,20.72
2016-08-14T07:25:44.140Z,20.76
2016-08-14T07:26:44.106Z,20.66
2016-08-14T07:27:44.065Z,20.71
2016-08-14T07:28:42.632Z,20.74
2016-08-14T07:29:44.063Z,20.71
2016-08-14T07:30:43.920Z,20.53
2016-08-14T07:31:42.503Z,20.46
2016-08-14T07:32:43.840Z,20.41
2016-08-14T07:33:43.845Z,20.3
2016-08-14T07:34:43.747Z,20.24
2016-08-14T07:35:43.946Z,20.31
2016-08-14T07:36:42.981Z,20.3
2016-08-14T07:37:43.645Z,20.39
2016-08-14T07:38:42.897Z,20.53
2016-08-14T07:39:42.850Z,20.47
2016-08-14T07:40:43.503Z,20.54
2016-08-14T07:41:42.811Z,20.66
2016-08-14T07:42:42.917Z,20.71
2016-08-14T07:43:42.747Z,20.69
2016-08-14T07:44:43.310Z,20.69
2016-08-14T07:45:43.690Z,20.66
2016-08-14T07:46:42.747Z,20.69
2016-08-14T07:47:42.518Z,20.74
2016-08-14T07:48:43.260Z,20.64
2016-08-14T07:49:42.412Z,20.59
2016-08-14T07:50:42.355Z,20.59
2016-08-14T07:51:43.011Z,20.49
2016-08-14T07:52:42.979Z,20.46
2016-08-14T07:53:42.221Z,20.43
2016-08-14T07:54:42.178Z,20.47
2016-08-14T07:55:42.129Z,20.49
2016-08-14T07:56:42.819Z,20.46
2016-08-14T07:57:42.750Z,20.61
2016-08-14T07:58:42.909Z,20.68
2016-08-14T07:59:42.655Z,20.76
2016-08-14T08:00:41.221Z,20.81
2016-08-14T08:01:41.901Z,20.89
2016-08-14T08:02:42.529Z,20.95
2016-08-14T08:03:42.490Z,21.04
2016-08-14T08:04:42.448Z,21.05
2016-08-14T08:05:42.410Z,21.11
2016-08-14T08:06:42.348Z,21.08
2016-08-14T08:07:42.360Z,21.13
2016-08-14T08:08:42.304Z,21.17
2016-08-14T08:09:43.025Z,21.19
2016-08-14T08:10:41.690Z,21.13
2016-08-14T08:11:42.551Z,21.14
2016-08-14T08:12:42.911Z,21.17
2016-08-14T08:13:42.247Z,21.13
2016-08-14T08:14:42.005Z,21.13
2016-08-14T08:15:41.956Z,21.17
2016-08-14T08:16:42.142Z,21.2
2016-08-14T08:17:41.169Z,21.2
2016-08-14T08:18:41.124Z,21.17
2016-08-14T08:19:41.102Z,21.27
2016-08-14T08:20:41.041Z,21.17
2016-08-14T08:21:41.919Z,21.19
2016-08-14T08:22:41.659Z,21.13
2016-08-14T08:23:41.117Z,21.16
2016-08-14T08:24:41.566Z,21.2
2016-08-14T08:25:41.540Z,21.13
2016-08-14T08:26:41.493Z,21.06
2016-08-14T08:27:41.442Z,21.08
2016-08-14T08:28:41.607Z,20.96
2016-08-14T08:29:41.375Z,20.9
2016-08-14T08:30:40.620Z,20.91
2016-08-14T08:31:41.275Z,20.86
2016-08-14T08:32:41.251Z,20.98
2016-08-14T08:33:41.189Z,20.99
2016-08-14T08:34:40.442Z,21.06
2016-08-14T08:35:41.089Z,21.11
2016-08-14T08:36:41.060Z,21.19
2016-08-14T08:37:41.015Z,21.19
2016-08-14T08:38:41.000Z,21.21
2016-08-14T08:39:40.939Z,21.34
2016-08-14T08:40:40.902Z,21.38
2016-08-14T08:41:40.871Z,21.56
2016-08-14T08:42:39.595Z,21.54
2016-08-14T08:43:40.044Z,21.59
2016-08-14T08:44:41.110Z,21.59
2016-08-14T08:45:41.050Z,21.63
2016-08-14T08:46:40.617Z,21.61
2016-08-14T08:47:40.562Z,21.6
2016-08-14T08:48:39.830Z,21.69
2016-08-14T08:49:40.498Z,21.82
2016-08-14T08:50:40.453Z,21.88
2016-08-14T08:51:40.414Z,21.99
2016-08-14T08:52:40.349Z,21.91
2016-08-14T08:53:40.316Z,21.94
2016-08-14T08:54:40.270Z,21.91
2016-08-14T08:55:40.438Z,21.85
2016-08-14T08:56:39.480Z,21.78
2016-08-14T08:57:40.159Z,21.79
2016-08-14T08:58:40.110Z,22.01
2016-08-14T08:59:40.270Z,22.02
2016-08-14T09:00:40.030Z,22.07
2016-08-14T09:01:39.989Z,22.19
2016-08-14T09:02:40.152Z,22.2
2016-08-14T09:03:39.269Z,22.32
2016-08-14T09:04:39.922Z,22.19
2016-08-14T09:05:39.810Z,22.13
2016-08-14T09:06:39.758Z,22.1
2016-08-14T09:07:39.728Z,22.07
2016-08-14T09:08:39.712Z,22.16
2016-08-14T09:09:39.632Z,22.16
2016-08-14T09:10:38.880Z,22.13
2016-08-14T09:11:39.552Z,22.12
2016-08-14T09:12:39.508Z,22.19
2016-08-14T09:13:39.460Z,22.2
2016-08-14T09:14:38.730Z,22.09
2016-08-14T09:15:39.369Z,22.02
2016-08-14T09:16:39.340Z,22.04
2016-08-14T09:17:38.589Z,22.02
2016-08-14T09:18:39.442Z,22.06
2016-08-14T09:19:38.489Z,22.07
2016-08-14T09:20:38.490Z,21.99
2016-08-14T09:21:39.329Z,22.04
2016-08-14T09:22:39.090Z,21.99
2016-08-14T09:23:39.092Z,21.94
2016-08-14T09:24:38.997Z,21.91
2016-08-14T09:25:38.950Z,21.88
2016-08-14T09:26:38.899Z,21.83
2016-08-14T09:27:39.250Z,21.75
2016-08-14T09:28:38.819Z,21.75
2016-08-14T09:29:38.770Z,21.74
2016-08-14T09:30:38.039Z,21.78
2016-08-14T09:31:38.701Z,21.76
2016-08-14T09:32:38.658Z,21.83
2016-08-14T09:33:38.637Z,21.99
2016-08-14T09:34:37.881Z,21.85
2016-08-14T09:35:38.524Z,21.91
2016-08-14T09:36:38.457Z,21.99
2016-08-14T09:37:38.450Z,21.9
2016-08-14T09:38:38.386Z,21.88
2016-08-14T09:39:38.349Z,22.02
2016-08-14T09:40:38.299Z,21.99
2016-08-14T09:41:38.268Z,22.06
2016-08-14T09:42:38.206Z,22.1
2016-08-14T09:43:38.165Z,22.22
2016-08-14T09:44:38.136Z,22.29
2016-08-14T09:45:38.313Z,22.28
2016-08-14T09:46:38.038Z,22.31
2016-08-14T09:47:38.017Z,22.39
2016-08-14T09:48:37.968Z,22.44
2016-08-14T09:49:37.928Z,22.47
2016-08-14T09:50:37.168Z,22.39
2016-08-14T09:51:37.839Z,22.46
2016-08-14T09:52:37.524Z,22.38
2016-08-14T09:53:37.073Z,22.35
2016-08-14T09:54:37.911Z,22.37
2016-08-14T09:55:37.682Z,22.46
2016-08-14T09:56:37.825Z,22.5
2016-08-14T09:57:36.880Z,22.49
2016-08-14T09:58:37.528Z,22.46
2016-08-14T09:59:37.480Z,22.6
2016-08-14T10:00:37.667Z,22.53
2016-08-14T10:01:37.809Z,22.57
2016-08-14T10:02:36.892Z,22.64
2016-08-14T10:03:36.627Z,22.59
2016-08-14T10:04:36.636Z,22.59
2016-08-14T10:05:37.247Z,22.6
2016-08-14T10:06:36.499Z,22.64
2016-08-14T10:07:37.154Z,22.57
2016-08-14T10:08:36.414Z,22.6
2016-08-14T10:09:37.260Z,22.65
2016-08-14T10:10:37.050Z,22.74
2016-08-14T10:11:37.518Z,22.8
